createdAt,value
2018-07-08T00:00:34.234Z,17.19
2018-07-08T00:01:34.211Z,17.13
2018-07-08T00:02:34.189Z,16.97
2018-07-08T00:03:34.170Z,17.06
2018-07-08T00:04:34.172Z,16.95
2018-07-08T00:05:34.158Z,16.97
2018-07-08T00:06:34.127Z,16.94
2018-07-08T00:07:34.104Z,16.84
2018-07-08T00:08:34.097Z,16.84
2018-07-08T00:09:34.078Z,16.87
2018-07-08T00:10:34.069Z,16.90
2018-07-08T00:11:34.069Z,16.82
2018-07-08T00:12:34.109Z,16.80
2018-07-08T00:13:34.004Z,16.74
2018-07-08T00:14:34.010Z,16.76
2018-07-08T00:15:34.006Z,16.67
2018-07-08T00:16:33.978Z,16.72
2018-07-08T00:17:33.977Z,16.72
2018-07-08T00:18:33.923Z,16.69
2018-07-08T00:19:33.900Z,16.69
2018-07-08T00:20:33.908Z,16.74
2018-07-08T00:21:33.863Z,16.69
2018-07-08T00:22:33.881Z,16.59
2018-07-08T00:23:33.832Z,16.62
2018-07-08T00:24:33.819Z,16.62
2018-07-08T00:25:33.800Z,16.69
2018-07-08T00:26:33.788Z,16.51
2018-07-08T00:27:33.777Z,16.55
2018-07-08T00:28:33.743Z,16.51
2018-07-08T00:29:33.743Z,16.57
2018-07-08T00:30:33.714Z,16.44
2018-07-08T00:31:33.699Z,16.49
2018-07-08T00:32:33.672Z,16.46
2018-07-08T00:33:33.678Z,16.40
2018-07-08T00:34:33.646Z,16.39
2018-07-08T00:35:33.620Z,16.39
2018-07-08T00:36:33.601Z,16.42
2018-07-08T00:37:33.586Z,16.28
2018-07-08T00:38:33.607Z,16.37
2018-07-08T00:39:33.554Z,16.34
2018-07-08T00:40:33.542Z,16.33
2018-07-08T00:41:33.521Z,16.24
2018-07-08T00:42:33.514Z,16.28
2018-07-08T00:43:33.509Z,16.24
2018-07-08T00:44:33.489Z,16.26
2018-07-08T00:45:33.487Z,16.33
2018-07-08T00:46:33.477Z,16.28
2018-07-08T00:47:33.405Z,16.28
2018-07-08T00:48:33.392Z,16.28
2018-07-08T00:49:33.414Z,16.28
2018-07-08T00:50:33.358Z,16.24
2018-07-08T00:51:33.333Z,16.26
2018-07-08T00:52:33.344Z,16.28
2018-07-08T00:53:33.314Z,16.28
2018-07-08T00:54:33.294Z,16.26
2018-07-08T00:55:33.286Z,16.25
2018-07-08T00:56:33.250Z,16.24
2018-07-08T00:57:33.282Z,16.18
2018-07-08T00:58:33.219Z,16.21
2018-07-08T00:59:33.218Z,16.18
2018-07-08T01:00:33.187Z,16.10
2018-07-08T01:01:33.204Z,16.22
2018-07-08T01:02:33.153Z,16.13
2018-07-08T01:03:33.121Z,16.16
2018-07-08T01:04:33.107Z,16.10
2018-07-08T01:05:33.130Z,16.00
2018-07-08T01:06:33.078Z,16.05
2018-07-08T01:07:33.053Z,16.00
2018-07-08T01:08:33.059Z,16.08
2018-07-08T01:09:33.013Z,16.06
2018-07-08T01:10:32.995Z,16.06
2018-07-08T01:11:32.980Z,16.08
2018-07-08T01:12:32.979Z,16.00
2018-07-08T01:13:32.942Z,16.02
2018-07-08T01:14:32.939Z,16.03
2018-07-08T01:15:32.910Z,15.90
2018-07-08T01:16:32.922Z,16.03
2018-07-08T01:17:32.886Z,15.98
2018-07-08T01:18:32.869Z,16.06
2018-07-08T01:19:32.843Z,15.98
2018-07-08T01:20:32.820Z,15.96
2018-07-08T01:21:32.804Z,15.98
2018-07-08T01:22:32.893Z,15.96
2018-07-08T01:23:32.788Z,15.91
2018-07-08T01:24:32.772Z,15.93
2018-07-08T01:25:32.749Z,15.95
2018-07-08T01:26:32.743Z,15.91
2018-07-08T01:27:32.704Z,15.93
2018-07-08T01:28:32.738Z,15.88
2018-07-08T01:29:32.665Z,15.90
2018-07-08T01:30:32.664Z,15.91
2018-07-08T01:31:32.650Z,15.90
2018-07-08T01:32:32.629Z,15.87
2018-07-08T01:33:32.632Z,15.83
2018-07-08T01:34:32.574Z,15.77
2018-07-08T01:35:32.580Z,15.80
2018-07-08T01:36:32.573Z,15.77
2018-07-08T01:37:32.525Z,15.72
2018-07-08T01:38:32.500Z,15.73
2018-07-08T01:39:32.506Z,15.76
2018-07-08T01:40:32.494Z,15.73
2018-07-08T01:41:32.470Z,15.78
2018-07-08T01:42:32.447Z,15.70
2018-07-08T01:43:32.419Z,15.65
2018-07-08T01:44:32.389Z,15.76
2018-07-08T01:45:32.369Z,15.63
2018-07-08T01:46:32.373Z,15.60
2018-07-08T01:47:32.367Z,15.68
2018-07-08T01:48:32.322Z,15.68
2018-07-08T01:49:32.304Z,15.66
2018-07-08T01:50:32.289Z,15.60
2018-07-08T01:51:32.267Z,15.62
2018-07-08T01:52:32.257Z,15.58
2018-07-08T01:53:32.243Z,15.58
2018-07-08T01:54:32.208Z,15.47
2018-07-08T01:55:32.213Z,15.50
2018-07-08T01:56:32.174Z,15.54
2018-07-08T01:57:32.186Z,15.47
2018-07-08T01:58:32.156Z,15.45
2018-07-08T01:59:32.119Z,15.51
2018-07-08T02:00:32.100Z,15.47
2018-07-08T02:01:32.083Z,15.47
2018-07-08T02:02:32.074Z,15.50
2018-07-08T02:03:32.107Z,15.54
2018-07-08T02:04:32.031Z,15.54
2018-07-08T02:05:32.023Z,15.50
2018-07-08T02:06:31.988Z,15.47
2018-07-08T02:07:31.973Z,15.47
2018-07-08T02:08:31.959Z,15.43
2018-07-08T02:09:31.962Z,15.33
2018-07-08T02:10:31.924Z,15.32
2018-07-08T02:11:31.901Z,15.32
2018-07-08T02:12:31.976Z,15.35
2018-07-08T02:13:31.897Z,15.38
2018-07-08T02:14:31.846Z,15.30
2018-07-08T02:15:31.839Z,15.41
2018-07-08T02:16:31.832Z,15.38
2018-07-08T02:17:31.789Z,15.30
2018-07-08T02:18:31.811Z,15.38
2018-07-08T02:19:31.755Z,15.29
2018-07-08T02:20:31.754Z,15.25
2018-07-08T02:21:31.739Z,15.17
2018-07-08T02:22:31.707Z,15.19
2018-07-08T02:23:31.681Z,15.07
2018-07-08T02:24:31.672Z,15.07
2018-07-08T02:25:31.704Z,15.05
2018-07-08T02:26:31.649Z,15.07
2018-07-08T02:27:31.610Z,15.11
2018-07-08T02:28:31.588Z,15.08
2018-07-08T02:29:31.576Z,15.10
2018-07-08T02:30:31.560Z,15.07
2018-07-08T02:31:31.578Z,15.05
2018-07-08T02:32:31.536Z,15.12
2018-07-08T02:33:31.515Z,15.10
2018-07-08T02:34:31.487Z,15.08
2018-07-08T02:35:31.484Z,15.01
2018-07-08T02:36:31.438Z,15.04
2018-07-08T02:37:31.522Z,15.04
2018-07-08T02:38:31.429Z,15.01
2018-07-08T02:39:31.392Z,14.97
2018-07-08T02:40:31.393Z,14.96
2018-07-08T02:41:31.369Z,14.95
2018-07-08T02:42:31.344Z,14.90
2018-07-08T02:43:31.318Z,14.95
2018-07-08T02:44:31.292Z,14.89
2018-07-08T02:45:31.305Z,14.97
2018-07-08T02:46:31.260Z,14.95
2018-07-08T02:47:31.251Z,14.90
2018-07-08T02:48:31.226Z,14.92
2018-07-08T02:49:31.231Z,14.90
2018-07-08T02:50:31.216Z,14.78
2018-07-08T02:51:31.180Z,14.83
2018-07-08T02:52:31.144Z,14.87
2018-07-08T02:53:31.133Z,14.83
2018-07-08T02:54:31.115Z,14.79
2018-07-08T02:55:31.102Z,14.85
2018-07-08T02:56:31.077Z,14.79
2018-07-08T02:57:31.068Z,14.86
2018-07-08T02:58:31.054Z,14.71
2018-07-08T02:59:31.031Z,14.79
2018-07-08T03:00:30.999Z,14.86
2018-07-08T03:01:31.048Z,14.86
2018-07-08T03:02:30.991Z,14.71
2018-07-08T03:03:30.967Z,14.79
2018-07-08T03:04:30.948Z,14.69
2018-07-08T03:05:30.909Z,14.77
2018-07-08T03:06:30.888Z,14.71
2018-07-08T03:07:30.874Z,14.67
2018-07-08T03:08:30.850Z,14.70
2018-07-08T03:09:30.832Z,14.83
2018-07-08T03:10:30.825Z,14.82
2018-07-08T03:11:30.846Z,14.70
2018-07-08T03:12:30.785Z,14.70
2018-07-08T03:13:30.786Z,14.74
2018-07-08T03:14:30.741Z,14.66
2018-07-08T03:15:30.731Z,14.66
2018-07-08T03:16:30.700Z,14.71
2018-07-08T03:17:30.695Z,14.69
2018-07-08T03:18:30.666Z,14.69
2018-07-08T03:19:30.649Z,14.64
2018-07-08T03:20:30.653Z,14.67
2018-07-08T03:21:30.611Z,14.70
2018-07-08T03:22:30.595Z,14.61
2018-07-08T03:23:30.623Z,14.55
2018-07-08T03:24:30.563Z,14.56
2018-07-08T03:25:30.561Z,14.53
2018-07-08T03:26:30.523Z,14.55
2018-07-08T03:27:30.503Z,14.58
2018-07-08T03:28:30.478Z,14.56
2018-07-08T03:29:30.464Z,14.55
2018-07-08T03:30:30.445Z,14.52
2018-07-08T03:31:30.423Z,14.55
2018-07-08T03:32:30.406Z,14.56
2018-07-08T03:33:30.422Z,14.61
2018-07-08T03:34:30.372Z,14.56
2018-07-08T03:35:30.364Z,14.51
2018-07-08T03:36:30.331Z,14.53
2018-07-08T03:37:30.320Z,14.51
2018-07-08T03:38:30.317Z,14.52
2018-07-08T03:39:30.293Z,14.56
2018-07-08T03:40:30.276Z,14.56
2018-07-08T03:41:30.240Z,14.51
2018-07-08T03:42:30.220Z,14.56
2018-07-08T03:43:30.219Z,14.45
2018-07-08T03:44:30.179Z,14.51
2018-07-08T03:45:30.158Z,14.58
2018-07-08T03:46:30.143Z,14.46
2018-07-08T03:47:30.200Z,14.59
2018-07-08T03:48:30.132Z,14.45
2018-07-08T03:49:30.086Z,14.52
2018-07-08T03:50:30.080Z,14.49
2018-07-08T03:51:30.055Z,14.55
2018-07-08T03:52:30.071Z,14.48
2018-07-08T03:53:30.015Z,14.46
2018-07-08T03:54:30.070Z,14.48
2018-07-08T03:55:29.982Z,14.53
2018-07-08T03:56:29.963Z,14.51
2018-07-08T03:57:29.953Z,14.49
2018-07-08T03:58:29.939Z,14.45
2018-07-08T03:59:29.906Z,14.44
2018-07-08T04:00:29.893Z,14.31
2018-07-08T04:01:29.881Z,14.41
2018-07-08T04:02:29.879Z,14.46
2018-07-08T04:03:29.851Z,14.49
2018-07-08T04:04:29.810Z,14.45
2018-07-08T04:05:29.784Z,14.41
2018-07-08T04:06:29.785Z,14.44
2018-07-08T04:07:29.773Z,14.49
2018-07-08T04:08:29.758Z,14.49
2018-07-08T04:09:29.713Z,14.51
2018-07-08T04:10:29.696Z,14.51
2018-07-08T04:11:29.698Z,14.52
2018-07-08T04:12:29.702Z,14.48
2018-07-08T04:13:29.669Z,14.46
2018-07-08T04:14:29.628Z,14.45
2018-07-08T04:15:29.599Z,14.44
2018-07-08T04:16:29.578Z,14.44
2018-07-08T04:17:29.588Z,14.48
2018-07-08T04:18:29.552Z,14.44
2018-07-08T04:19:29.527Z,14.52
2018-07-08T04:20:29.511Z,14.52
2018-07-08T04:21:29.488Z,14.51
2018-07-08T04:22:29.497Z,14.49
2018-07-08T04:23:29.568Z,14.53
2018-07-08T04:24:29.464Z,14.52
2018-07-08T04:25:29.431Z,14.53
2018-07-08T04:26:29.398Z,14.56
2018-07-08T04:27:29.382Z,14.58
2018-07-08T04:28:29.360Z,14.46
2018-07-08T04:37:14.776Z,14.59
2018-07-08T04:38:14.740Z,14.56
2018-07-08T04:39:14.762Z,14.66
2018-07-08T04:40:14.697Z,14.71
2018-07-08T04:41:14.680Z,14.66
2018-07-08T04:42:14.653Z,14.71
2018-07-08T04:43:14.651Z,14.70
2018-07-08T04:44:14.624Z,14.71
2018-07-08T04:45:14.614Z,14.83
2018-07-08T04:46:14.597Z,14.73
2018-07-08T04:47:14.573Z,14.73
2018-07-08T04:48:14.559Z,14.83
2018-07-08T04:49:14.576Z,14.87
2018-07-08T04:50:14.573Z,14.86
2018-07-08T04:51:14.513Z,14.90
2018-07-08T04:52:14.491Z,14.90
2018-07-08T04:53:14.483Z,14.86
2018-07-08T04:54:14.449Z,14.90
2018-07-08T04:55:14.433Z,14.85
2018-07-08T04:56:14.405Z,14.93
2018-07-08T04:57:14.406Z,14.83
2018-07-08T04:58:14.396Z,14.85
2018-07-08T04:59:14.345Z,14.90
2018-07-08T05:00:14.322Z,14.86
2018-07-08T05:01:14.337Z,14.97
2018-07-08T05:02:14.290Z,14.89
2018-07-08T05:03:14.281Z,14.89
2018-07-08T05:04:14.265Z,14.93
2018-07-08T05:05:14.237Z,14.89
2018-07-08T05:06:14.223Z,14.95
2018-07-08T05:07:14.222Z,14.95
2018-07-08T05:08:14.220Z,15.01
2018-07-08T05:09:14.188Z,15.04
2018-07-08T05:10:14.172Z,15.10
2018-07-08T05:11:14.156Z,15.05
2018-07-08T05:12:14.103Z,15.10
2018-07-08T05:13:14.130Z,15.08
2018-07-08T05:14:14.060Z,15.14
2018-07-08T05:15:14.047Z,15.26
2018-07-08T05:16:14.056Z,15.19
2018-07-08T05:17:14.054Z,15.25
2018-07-08T05:18:14.018Z,15.14
2018-07-08T05:19:14.004Z,15.25
2018-07-08T05:20:13.981Z,15.29
2018-07-08T05:21:13.984Z,15.35
2018-07-08T05:22:13.950Z,15.32
2018-07-08T05:23:13.902Z,15.38
2018-07-08T05:24:13.892Z,15.36
2018-07-08T05:25:13.895Z,15.41
2018-07-08T05:26:13.906Z,15.32
2018-07-08T05:27:13.844Z,15.33
2018-07-08T05:28:13.809Z,15.35
2018-07-08T05:29:13.824Z,15.38
2018-07-08T05:30:13.781Z,15.38
2018-07-08T05:31:13.773Z,15.36
2018-07-08T05:32:13.743Z,15.41
2018-07-08T05:33:13.716Z,15.35
2018-07-08T05:34:13.703Z,15.48
2018-07-08T05:35:13.676Z,15.47
2018-07-08T05:36:13.693Z,15.41
2018-07-08T05:37:13.659Z,15.40
2018-07-08T05:38:13.627Z,15.54
2018-07-08T05:39:13.607Z,15.48
2018-07-08T05:40:13.644Z,15.56
2018-07-08T05:41:13.599Z,15.50
2018-07-08T05:42:13.635Z,15.51
2018-07-08T05:43:13.556Z,15.54
2018-07-08T05:44:13.519Z,15.58
2018-07-08T05:45:13.497Z,15.60
2018-07-08T05:46:13.479Z,15.66
2018-07-08T05:47:13.463Z,15.72
2018-07-08T05:48:13.473Z,15.69
2018-07-08T05:49:13.436Z,15.78
2018-07-08T05:50:13.449Z,15.85
2018-07-08T05:51:13.388Z,15.87
2018-07-08T05:52:13.375Z,15.87
2018-07-08T05:53:13.363Z,15.93
2018-07-08T05:54:13.348Z,15.99
2018-07-08T05:55:13.331Z,16.02
2018-07-08T05:56:13.301Z,15.98
2018-07-08T05:57:13.282Z,16.13
2018-07-08T05:58:13.298Z,16.21
2018-07-08T05:59:13.242Z,16.22
2018-07-08T06:00:13.251Z,16.47
2018-07-08T06:01:13.208Z,16.51
2018-07-08T06:02:13.223Z,16.69
2018-07-08T06:03:13.205Z,16.69
2018-07-08T06:04:13.596Z,16.83
2018-07-08T06:05:13.186Z,16.87
2018-07-08T06:07:36.313Z,17.17
2018-07-08T06:08:36.178Z,17.09
2018-07-08T06:09:36.247Z,17.24
2018-07-08T06:10:36.144Z,17.39
2018-07-08T06:11:36.112Z,17.34
2018-07-08T06:12:36.099Z,17.38
2018-07-08T06:13:36.193Z,17.31
2018-07-08T06:14:36.071Z,17.31
2018-07-08T06:15:36.069Z,17.27
2018-07-08T06:16:36.035Z,17.27
2018-07-08T06:17:36.059Z,17.31
2018-07-08T06:18:36.020Z,17.43
2018-07-08T06:19:36.022Z,17.65
2018-07-08T06:20:35.988Z,17.73
2018-07-08T06:21:35.981Z,17.75
2018-07-08T06:22:35.964Z,17.96
2018-07-08T06:23:35.937Z,17.94
2018-07-08T06:24:35.922Z,17.91
2018-07-08T06:25:35.990Z,18.02
2018-07-08T06:26:35.930Z,18.05
2018-07-08T06:27:35.983Z,17.97
2018-07-08T06:28:35.903Z,18.03
2018-07-08T06:29:35.916Z,18.03
2018-07-08T06:30:35.890Z,18.12
2018-07-08T06:31:35.838Z,18.12
2018-07-08T06:32:35.837Z,18.15
2018-07-08T06:33:35.830Z,18.23
2018-07-08T06:34:35.838Z,17.99
2018-07-08T06:35:35.826Z,17.96
2018-07-08T06:36:35.804Z,17.94
2018-07-08T06:37:35.779Z,18.03
2018-07-08T06:38:35.776Z,18.01
2018-07-08T06:39:35.753Z,18.02
2018-07-08T06:40:35.741Z,17.91
2018-07-08T06:41:35.923Z,17.97
2018-07-08T06:42:35.779Z,18.09
2018-07-08T06:43:35.713Z,18.09
2018-07-08T06:44:35.729Z,18.24
2018-07-08T06:45:35.723Z,18.41
2018-07-08T06:46:35.680Z,18.46
2018-07-08T06:47:35.685Z,18.51
2018-07-08T06:48:35.680Z,18.83
2018-07-08T06:49:35.667Z,19.00
2018-07-08T06:50:35.651Z,19.01
2018-07-08T06:51:35.660Z,19.07
2018-07-08T06:52:35.632Z,19.15
2018-07-08T06:53:35.604Z,19.16
2018-07-08T06:54:35.720Z,19.19
2018-07-08T06:55:35.639Z,19.32
2018-07-08T06:56:35.633Z,19.32
2018-07-08T06:57:35.588Z,19.49
2018-07-08T06:58:35.603Z,19.57
2018-07-08T06:59:35.565Z,19.72
2018-07-08T07:00:35.562Z,19.70
2018-07-08T07:01:35.785Z,19.78
2018-07-08T07:02:35.558Z,19.94
2018-07-08T07:03:35.560Z,19.96
2018-07-08T07:04:35.535Z,19.93
2018-07-08T07:05:35.565Z,19.90
2018-07-08T07:06:35.506Z,19.81
2018-07-08T07:07:35.485Z,19.84
2018-07-08T07:08:35.480Z,19.81
2018-07-08T07:09:35.501Z,19.82
2018-07-08T07:10:35.480Z,19.84
2018-07-08T07:11:35.467Z,19.79
2018-07-08T07:12:35.446Z,19.94
2018-07-08T07:13:35.459Z,20.00
2018-07-08T07:14:35.476Z,20.05
2018-07-08T07:15:35.433Z,19.81
2018-07-08T07:16:35.416Z,19.82
2018-07-08T07:17:35.499Z,19.92
2018-07-08T07:18:35.404Z,19.90
2018-07-08T07:19:35.430Z,20.00
2018-07-08T07:20:35.414Z,20.08
2018-07-08T07:21:35.386Z,20.25
2018-07-08T07:22:35.415Z,20.05
2018-07-08T07:23:35.364Z,20.25
2018-07-08T07:24:35.365Z,20.26
2018-07-08T07:25:35.392Z,20.30
2018-07-08T07:26:35.364Z,20.30
2018-07-08T07:27:35.338Z,20.27
2018-07-08T07:28:35.339Z,20.17
2018-07-08T07:29:35.351Z,20.05
2018-07-08T07:30:35.343Z,19.96
2018-07-08T07:32:58.395Z,20.09
2018-07-08T07:33:58.357Z,20.07
2018-07-08T07:34:58.339Z,19.89
2018-07-08T07:35:58.380Z,19.71
2018-07-08T07:36:58.371Z,19.77
2018-07-08T07:37:58.313Z,19.90
2018-07-08T07:38:58.315Z,19.93
2018-07-08T07:39:58.288Z,20.15
2018-07-08T07:40:58.278Z,20.23
2018-07-08T07:41:58.282Z,20.19
2018-07-08T07:42:58.267Z,20.27
2018-07-08T07:43:58.235Z,20.34
2018-07-08T07:46:21.313Z,20.27
2018-07-08T07:47:21.273Z,20.34
2018-07-08T07:48:21.251Z,20.34
2018-07-08T07:49:21.257Z,20.26
2018-07-08T07:50:21.224Z,20.30
2018-07-08T07:51:21.261Z,20.17
2018-07-08T07:52:21.200Z,20.07
2018-07-08T07:53:21.200Z,20.15
2018-07-08T07:54:21.187Z,20.23
2018-07-08T07:55:21.195Z,20.27
2018-07-08T07:56:21.203Z,20.58
2018-07-08T07:57:21.203Z,20.55
2018-07-08T07:58:21.128Z,20.73
2018-07-08T07:59:21.114Z,20.73
2018-07-08T08:00:21.106Z,20.55
2018-07-08T08:01:21.090Z,20.48
2018-07-08T08:02:21.074Z,20.56
2018-07-08T08:03:21.095Z,20.63
2018-07-08T08:04:21.048Z,20.74
2018-07-08T08:05:21.039Z,20.63
2018-07-08T08:06:21.051Z,20.77
2018-07-08T08:07:21.051Z,20.77
2018-07-08T08:08:21.066Z,20.74
2018-07-08T08:09:21.028Z,20.89
2018-07-08T08:10:20.990Z,20.61
2018-07-08T08:11:21.011Z,20.60
2018-07-08T08:12:21.010Z,20.53
2018-07-08T08:13:20.961Z,20.60
2018-07-08T08:14:20.951Z,20.53
2018-07-08T08:15:20.901Z,20.65
2018-07-08T08:16:20.890Z,20.67
2018-07-08T08:17:20.874Z,20.85
2018-07-08T08:18:20.858Z,20.95
2018-07-08T08:19:20.850Z,20.95
2018-07-08T08:20:20.866Z,21.04
2018-07-08T08:21:20.851Z,21.14
2018-07-08T08:22:20.837Z,21.07
2018-07-08T08:23:20.834Z,21.04
2018-07-08T08:24:20.782Z,21.20
2018-07-08T08:25:20.781Z,21.13
2018-07-08T08:26:20.825Z,21.28
2018-07-08T08:27:20.780Z,21.30
2018-07-08T08:28:20.760Z,21.37
2018-07-08T08:29:20.719Z,21.11
2018-07-08T08:30:20.741Z,20.86
2018-07-08T08:31:20.687Z,20.93
2018-07-08T08:32:20.719Z,20.92
2018-07-08T08:33:20.658Z,20.77
2018-07-08T08:34:20.658Z,20.75
2018-07-08T08:35:20.631Z,20.80
2018-07-08T08:36:20.639Z,20.88
2018-07-08T08:37:20.636Z,20.98
2018-07-08T08:38:20.605Z,20.98
2018-07-08T08:39:20.580Z,21.08
2018-07-08T08:40:20.582Z,21.03
2018-07-08T08:41:20.562Z,21.01
2018-07-08T08:42:20.574Z,20.88
2018-07-08T08:43:20.559Z,21.00
2018-07-08T08:44:20.509Z,21.05
2018-07-08T08:45:20.511Z,21.05
2018-07-08T08:46:20.508Z,21.10
2018-07-08T08:47:20.486Z,21.14
2018-07-08T08:48:20.461Z,21.30
2018-07-08T08:49:20.459Z,21.29
2018-07-08T08:50:20.435Z,21.22
2018-07-08T08:51:20.435Z,21.19
2018-07-08T08:52:20.452Z,21.13
2018-07-08T08:53:20.402Z,21.19
2018-07-08T08:54:20.426Z,21.07
2018-07-08T08:55:20.373Z,21.20
2018-07-08T08:56:20.353Z,21.23
2018-07-08T08:57:20.373Z,21.32
2018-07-08T08:58:20.406Z,21.34
2018-07-08T08:59:20.309Z,21.32
2018-07-08T09:00:20.314Z,21.37
2018-07-08T09:01:20.289Z,21.47
2018-07-08T09:02:20.290Z,21.53
2018-07-08T09:03:20.291Z,21.60
2018-07-08T09:04:20.240Z,21.55
2018-07-08T09:05:20.236Z,21.30
2018-07-08T09:06:20.242Z,21.34
2018-07-08T09:07:20.239Z,21.34
2018-07-08T09:08:20.190Z,21.41
2018-07-08T09:09:20.184Z,21.50
2018-07-08T09:10:20.160Z,21.50
2018-07-08T09:11:20.145Z,21.50
2018-07-08T09:12:20.131Z,21.55
2018-07-08T09:13:20.123Z,21.59
2018-07-08T09:14:20.105Z,21.60
2018-07-08T09:15:20.135Z,21.60
2018-07-08T09:16:20.103Z,21.60
2018-07-08T09:17:20.174Z,21.60
2018-07-08T09:18:20.084Z,21.34
2018-07-08T09:19:20.038Z,21.32
2018-07-08T09:20:20.039Z,21.45
2018-07-08T09:21:20.011Z,21.55
2018-07-08T09:22:20.014Z,21.65
2018-07-08T09:23:20.046Z,21.84
2018-07-08T09:24:20.016Z,21.85
2018-07-08T09:25:19.960Z,21.93
2018-07-08T09:26:19.991Z,21.94
2018-07-08T09:27:19.974Z,21.94
2018-07-08T09:28:19.951Z,21.93
2018-07-08T09:29:19.924Z,21.97
2018-07-08T09:30:19.905Z,22.01
2018-07-08T09:31:19.888Z,22.11
2018-07-08T09:32:19.877Z,22.07
2018-07-08T09:33:19.893Z,22.15
2018-07-08T09:34:19.852Z,22.18
2018-07-08T09:35:19.837Z,22.30
2018-07-08T09:36:19.823Z,22.38
2018-07-08T09:37:19.821Z,22.40
2018-07-08T09:38:19.782Z,22.51
2018-07-08T09:39:19.842Z,22.55
2018-07-08T09:40:19.788Z,22.64
2018-07-08T09:41:19.750Z,22.56
2018-07-08T09:42:19.756Z,22.59
2018-07-08T09:43:19.726Z,22.36
2018-07-08T09:44:19.729Z,22.40
2018-07-08T09:45:19.691Z,22.38
2018-07-08T09:46:19.679Z,22.41
2018-07-08T09:47:19.685Z,22.40
2018-07-08T09:48:19.653Z,22.23
2018-07-08T09:49:19.718Z,22.23
2018-07-08T09:50:19.635Z,22.31
2018-07-08T09:51:19.622Z,22.34
2018-07-08T09:52:19.636Z,22.34
2018-07-08T09:53:19.629Z,22.48
2018-07-08T09:54:19.594Z,22.59
2018-07-08T09:55:19.592Z,22.64
2018-07-08T09:56:19.574Z,22.51
2018-07-08T09:57:19.534Z,22.30
2018-07-08T09:58:19.542Z,22.33
2018-07-08T09:59:19.544Z,22.37
2018-07-08T10:00:19.530Z,22.46
2018-07-08T10:01:19.481Z,22.28
2018-07-08T10:02:19.559Z,22.36
2018-07-08T10:03:19.454Z,22.40
2018-07-08T10:04:19.457Z,22.31
2018-07-08T10:05:19.435Z,22.31
2018-07-08T10:06:19.428Z,22.46
2018-07-08T10:07:19.430Z,22.56
2018-07-08T10:08:19.453Z,22.58
2018-07-08T10:09:19.385Z,22.62
2018-07-08T10:10:19.366Z,22.61
2018-07-08T10:11:19.397Z,22.52
2018-07-08T10:13:51.538Z,22.49
2018-07-08T10:14:41.374Z,22.61
2018-07-08T10:15:41.471Z,22.78
2018-07-08T10:16:41.342Z,22.98
2018-07-08T10:17:41.391Z,23.10
2018-07-08T10:18:41.325Z,23.23
2018-07-08T10:19:41.412Z,23.34
2018-07-08T10:20:41.303Z,23.23
2018-07-08T10:21:41.355Z,23.13
2018-07-08T10:22:41.292Z,23.04
2018-07-08T10:23:41.246Z,22.88
2018-07-08T10:24:41.245Z,22.78
2018-07-08T10:25:41.225Z,22.89
2018-07-08T10:26:41.272Z,22.98
2018-07-08T10:27:41.243Z,22.99
2018-07-08T10:28:41.205Z,23.04
2018-07-08T10:29:41.168Z,23.17
2018-07-08T10:30:41.203Z,23.36
2018-07-08T10:31:41.190Z,23.41
2018-07-08T10:32:41.141Z,23.52
2018-07-08T10:33:41.295Z,23.55
2018-07-08T10:34:41.232Z,23.63
2018-07-08T10:35:41.111Z,23.64
2018-07-08T10:36:41.185Z,23.41
2018-07-08T10:37:41.105Z,23.37
2018-07-08T10:38:41.063Z,23.46
2018-07-08T10:39:41.076Z,23.55
2018-07-08T10:40:41.039Z,23.66
2018-07-08T10:41:41.058Z,23.54
2018-07-08T10:42:41.011Z,23.49
2018-07-08T10:43:41.001Z,23.56
2018-07-08T10:46:04.086Z,23.91
2018-07-08T10:48:37.137Z,24.15
2018-07-08T10:49:27.043Z,24.19
2018-07-08T10:50:27.041Z,24.16
2018-07-08T10:51:27.042Z,24.11
2018-07-08T10:52:27.333Z,24.16
2018-07-08T10:53:26.996Z,24.15
2018-07-08T10:54:27.005Z,24.22
2018-07-08T10:55:27.016Z,24.18
2018-07-08T10:56:26.954Z,24.10
2018-07-08T10:57:26.942Z,24.16
2018-07-08T10:58:26.959Z,24.08
2018-07-08T10:59:26.944Z,24.16
2018-07-08T11:00:26.951Z,24.26
2018-07-08T11:01:26.955Z,24.21
2018-07-08T11:04:01.150Z,24.53
2018-07-08T11:06:23.261Z,24.84
2018-07-08T11:07:13.218Z,24.89
2018-07-08T11:08:13.077Z,24.96
2018-07-08T11:09:13.081Z,25.09
2018-07-08T11:10:13.238Z,25.11
2018-07-08T11:11:13.012Z,25.19
2018-07-08T11:12:12.998Z,24.93
2018-07-08T11:13:12.985Z,25.00
2018-07-08T11:14:12.996Z,24.79
2018-07-08T11:15:12.986Z,24.79
2018-07-08T11:16:12.990Z,24.86
2018-07-08T11:17:12.949Z,24.85
2018-07-08T11:18:12.937Z,24.82
2018-07-08T11:19:12.963Z,24.82
2018-07-08T11:20:12.945Z,24.85
2018-07-08T11:21:12.952Z,24.86
2018-07-08T11:22:12.992Z,24.89
2018-07-08T11:23:12.920Z,24.91
2018-07-08T11:24:12.894Z,24.96
2018-07-08T11:25:12.860Z,25.03
2018-07-08T11:26:12.845Z,25.06
2018-07-08T11:28:45.965Z,25.00
2018-07-08T11:29:35.989Z,24.89
2018-07-08T11:30:35.913Z,24.90
2018-07-08T11:31:35.908Z,25.04
2018-07-08T11:32:35.866Z,25.08
2018-07-08T11:33:35.836Z,24.97
2018-07-08T11:34:35.855Z,24.82
2018-07-08T11:35:35.828Z,25.03
2018-07-08T11:36:35.827Z,25.08
2018-07-08T11:37:35.812Z,25.23
2018-07-08T11:38:35.822Z,25.19
2018-07-08T11:39:36.143Z,25.27
2018-07-08T11:40:35.814Z,25.41
2018-07-08T11:41:35.763Z,25.19
2018-07-08T11:42:35.738Z,25.26
2018-07-08T11:43:35.766Z,25.34
2018-07-08T11:44:35.756Z,25.31
2018-07-08T11:45:35.755Z,25.26
2018-07-08T11:46:35.716Z,25.19
2018-07-08T11:47:35.716Z,25.11
2018-07-08T11:48:35.966Z,25.04
2018-07-08T11:49:35.700Z,25.21
2018-07-08T11:50:35.672Z,25.16
2018-07-08T11:51:35.721Z,25.26
2018-07-08T11:52:35.654Z,25.33
2018-07-08T11:53:35.618Z,25.41
2018-07-08T11:54:35.646Z,25.36
2018-07-08T11:55:35.601Z,25.41
2018-07-08T11:56:35.615Z,25.45
2018-07-08T11:57:35.585Z,25.36
2018-07-08T11:58:35.638Z,25.30
2018-07-08T11:59:35.597Z,25.43
2018-07-08T12:00:35.606Z,25.46
2018-07-08T12:01:35.568Z,25.49
2018-07-08T12:02:35.541Z,25.41
2018-07-08T12:03:35.517Z,25.41
2018-07-08T12:04:35.509Z,25.43
2018-07-08T12:05:35.509Z,25.33
2018-07-08T12:06:35.520Z,25.51
2018-07-08T12:07:35.495Z,25.56
2018-07-08T12:08:35.461Z,25.66
2018-07-08T12:09:35.445Z,25.71
2018-07-08T12:10:35.443Z,25.58
2018-07-08T12:11:35.450Z,25.55
2018-07-08T12:12:35.420Z,25.55
2018-07-08T12:13:35.452Z,25.58
2018-07-08T12:14:35.460Z,25.67
2018-07-08T12:15:35.378Z,25.96
2018-07-08T12:16:35.395Z,26.04
2018-07-08T12:17:35.387Z,26.15
2018-07-08T12:18:35.354Z,26.12
2018-07-08T12:19:35.360Z,26.00
2018-07-08T12:20:35.366Z,25.55
2018-07-08T12:21:35.347Z,25.06
2018-07-08T12:22:35.332Z,24.90
2018-07-08T12:23:35.325Z,25.04
2018-07-08T12:25:59.329Z,25.55
2018-07-08T12:26:59.318Z,25.83
2018-07-08T12:27:59.314Z,25.86
2018-07-08T12:28:59.294Z,25.96
2018-07-08T12:29:59.299Z,25.81
2018-07-08T12:30:59.294Z,25.77
2018-07-08T12:31:59.271Z,26.01
2018-07-08T12:32:59.260Z,26.08
2018-07-08T12:33:59.234Z,26.26
2018-07-08T12:34:59.219Z,26.38
2018-07-08T12:37:22.292Z,26.57
2018-07-08T12:38:22.244Z,26.61
2018-07-08T12:39:22.234Z,26.79
2018-07-08T12:40:22.244Z,27.03
2018-07-08T12:41:22.236Z,27.10
2018-07-08T12:42:22.315Z,27.27
2018-07-08T12:43:22.283Z,27.49
2018-07-08T12:44:22.283Z,27.47
2018-07-08T12:45:23.110Z,27.60
2018-07-08T12:46:22.199Z,27.54
2018-07-08T12:47:22.269Z,27.73
2018-07-08T12:48:22.156Z,27.75
2018-07-08T12:50:55.311Z,27.91
2018-07-08T12:51:45.155Z,28.13
2018-07-08T12:54:18.458Z,28.50
2018-07-08T12:55:08.375Z,28.65
2018-07-08T12:56:08.181Z,28.59
2018-07-08T12:58:41.808Z,28.89
2018-07-08T12:59:31.189Z,29.07
2018-07-08T13:00:31.204Z,29.27
2018-07-08T13:01:31.175Z,29.29
2018-07-08T13:03:54.273Z,28.93
2018-07-08T13:04:54.196Z,28.98
2018-07-08T13:05:54.197Z,29.36
2018-07-08T13:06:54.197Z,29.80
2018-07-08T13:07:54.179Z,30.07
2018-07-08T13:08:54.190Z,30.26
2018-07-08T13:09:54.210Z,30.39
2018-07-08T13:10:54.231Z,30.60
2018-07-08T13:13:28.554Z,30.33
2018-07-08T13:15:51.389Z,30.11
2018-07-08T13:16:40.550Z,30.20
2018-07-08T13:17:40.261Z,30.30
2018-07-08T13:18:40.246Z,30.49
2018-07-08T13:21:14.434Z,30.82
2018-07-08T13:22:03.326Z,31.11
2018-07-08T13:23:03.309Z,31.20
2018-07-08T13:24:03.334Z,31.24
2018-07-08T13:25:03.290Z,31.29